sensor_id;sensor_type;location;lat;lon;timestamp;P1;durP1;ratioP1;P2;durP2;ratioP2
68765;SDS011;55756;45.582;11.484;2023-11-19T00:00:42;27.70;;;17.63;;
68765;SDS011;55756;45.582;11.484;2023-11-19T00:03:08;25.08;;;17.38;;
68765;SDS011;55756;45.582;11.484;2023-11-19T00:05:38;26.38;;;17.15;;
68765;SDS011;55756;45.582;11.484;2023-11-19T00:08:04;28.23;;;17.52;;
68765;SDS011;55756;45.582;11.484;2023-11-19T00:10:31;24.98;;;16.98;;
68765;SDS011;55756;45.582;11.484;2023-11-19T00:12:57;26.73;;;18.48;;
68765;SDS011;55756;45.582;11.484;2023-11-19T00:15:22;26.38;;;17.58;;
68765;SDS011;55756;45.582;11.484;2023-11-19T00:17:49;28.08;;;17.60;;
68765;SDS011;55756;45.582;11.484;2023-11-19T00:20:15;27.02;;;17.67;;
68765;SDS011;55756;45.582;11.484;2023-11-19T00:22:42;27.63;;;17.55;;
68765;SDS011;55756;45.582;11.484;2023-11-19T00:25:08;26.13;;;17.17;;
68765;SDS011;55756;45.582;11.484;2023-11-19T00:27:35;26.38;;;17.30;;
68765;SDS011;55756;45.582;11.484;2023-11-19T00:30:06;26.40;;;16.90;;
68765;SDS011;55756;45.582;11.484;2023-11-19T00:32:33;30.02;;;17.15;;
68765;SDS011;55756;45.582;11.484;2023-11-19T00:35:02;26.20;;;17.20;;
68765;SDS011;55756;45.582;11.484;2023-11-19T00:39:54;29.65;;;19.50;;
68765;SDS011;55756;45.582;11.484;2023-11-19T00:42:21;32.45;;;19.55;;
68765;SDS011;55756;45.582;11.484;2023-11-19T00:44:49;31.70;;;19.33;;
68765;SDS011;55756;45.582;11.484;2023-11-19T00:47:15;31.67;;;18.95;;
68765;SDS011;55756;45.582;11.484;2023-11-19T00:49:41;30.13;;;18.55;;
68765;SDS011;55756;45.582;11.484;2023-11-19T00:52:08;29.38;;;17.85;;
68765;SDS011;55756;45.582;11.484;2023-11-19T00:54:33;28.25;;;16.95;;
68765;SDS011;55756;45.582;11.484;2023-11-19T00:56:59;25.52;;;15.98;;
68765;SDS011;55756;45.582;11.484;2023-11-19T00:59:26;26.33;;;16.02;;
68765;SDS011;55756;45.582;11.484;2023-11-19T01:01:53;27.23;;;17.23;;
68765;SDS011;55756;45.582;11.484;2023-11-19T01:04:20;25.73;;;16.70;;
68765;SDS011;55756;45.582;11.484;2023-11-19T01:06:45;27.55;;;17.23;;
68765;SDS011;55756;45.582;11.484;2023-11-19T01:09:11;27.90;;;16.05;;
68765;SDS011;55756;45.582;11.484;2023-11-19T01:11:37;23.67;;;15.15;;
68765;SDS011;55756;45.582;11.484;2023-11-19T01:14:02;23.42;;;15.13;;
68765;SDS011;55756;45.582;11.484;2023-11-19T01:16:28;23.50;;;14.60;;
68765;SDS011;55756;45.582;11.484;2023-11-19T01:18:55;20.83;;;14.02;;
68765;SDS011;55756;45.582;11.484;2023-11-19T01:21:21;20.88;;;14.38;;
68765;SDS011;55756;45.582;11.484;2023-11-19T01:23:47;23.08;;;13.77;;
68765;SDS011;55756;45.582;11.484;2023-11-19T01:26:13;21.48;;;14.02;;
68765;SDS011;55756;45.582;11.484;2023-11-19T01:28:39;23.17;;;14.50;;
68765;SDS011;55756;45.582;11.484;2023-11-19T01:31:14;24.27;;;15.90;;
68765;SDS011;55756;45.582;11.484;2023-11-19T01:33:40;27.75;;;15.98;;
68765;SDS011;55756;45.582;11.484;2023-11-19T01:36:07;25.05;;;17.08;;
68765;SDS011;55756;45.582;11.484;2023-11-19T01:38:34;27.60;;;17.92;;
68765;SDS011;55756;45.582;11.484;2023-11-19T01:41:01;26.30;;;17.08;;
68765;SDS011;55756;45.582;11.484;2023-11-19T01:43:32;28.85;;;16.85;;
68765;SDS011;55756;45.582;11.484;2023-11-19T01:45:59;24.08;;;15.18;;
68765;SDS011;55756;45.582;11.484;2023-11-19T01:48:26;25.10;;;16.17;;
68765;SDS011;55756;45.582;11.484;2023-11-19T01:50:52;24.60;;;16.02;;
68765;SDS011;55756;45.582;11.484;2023-11-19T01:53:18;26.83;;;16.13;;
68765;SDS011;55756;45.582;11.484;2023-11-19T01:55:48;23.90;;;15.60;;
68765;SDS011;55756;45.582;11.484;2023-11-19T01:58:15;26.27;;;15.80;;
68765;SDS011;55756;45.582;11.484;2023-11-19T02:00:41;24.90;;;15.27;;
68765;SDS011;55756;45.582;11.484;2023-11-19T02:03:08;25.70;;;16.27;;
68765;SDS011;55756;45.582;11.484;2023-11-19T02:05:34;24.45;;;15.68;;
68765;SDS011;55756;45.582;11.484;2023-11-19T02:08:01;22.65;;;15.73;;
68765;SDS011;55756;45.582;11.484;2023-11-19T02:10:27;22.25;;;15.25;;
68765;SDS011;55756;45.582;11.484;2023-11-19T02:12:53;26.35;;;16.08;;
68765;SDS011;55756;45.582;11.484;2023-11-19T02:15:20;26.00;;;16.23;;
68765;SDS011;55756;45.582;11.484;2023-11-19T02:20:15;23.63;;;14.98;;
68765;SDS011;55756;45.582;11.484;2023-11-19T02:22:41;23.35;;;15.43;;
68765;SDS011;55756;45.582;11.484;2023-11-19T02:25:31;22.88;;;15.38;;
68765;SDS011;55756;45.582;11.484;2023-11-19T02:28:01;23.40;;;15.27;;
68765;SDS011;55756;45.582;11.484;2023-11-19T02:30:28;24.02;;;15.35;;
68765;SDS011;55756;45.582;11.484;2023-11-19T02:33:03;22.42;;;15.45;;
68765;SDS011;55756;45.582;11.484;2023-11-19T02:35:32;23.98;;;15.38;;
68765;SDS011;55756;45.582;11.484;2023-11-19T02:37:58;22.88;;;14.32;;
68765;SDS011;55756;45.582;11.484;2023-11-19T02:40:25;23.95;;;15.10;;
68765;SDS011;55756;45.582;11.484;2023-11-19T02:42:54;22.45;;;14.35;;
68765;SDS011;55756;45.582;11.484;2023-11-19T02:45:23;22.10;;;14.30;;
68765;SDS011;55756;45.582;11.484;2023-11-19T02:47:50;22.45;;;13.82;;
68765;SDS011;55756;45.582;11.484;2023-11-19T02:50:17;21.42;;;13.88;;
68765;SDS011;55756;45.582;11.484;2023-11-19T02:52:50;23.20;;;14.00;;
68765;SDS011;55756;45.582;11.484;2023-11-19T02:55:17;21.05;;;13.40;;
68765;SDS011;55756;45.582;11.484;2023-11-19T02:57:44;20.33;;;13.38;;
68765;SDS011;55756;45.582;11.484;2023-11-19T03:00:17;22.88;;;13.90;;
68765;SDS011;55756;45.582;11.484;2023-11-19T03:02:48;21.23;;;13.68;;
68765;SDS011;55756;45.582;11.484;2023-11-19T03:05:19;22.52;;;14.50;;
68765;SDS011;55756;45.582;11.484;2023-11-19T03:07:45;21.73;;;13.75;;
68765;SDS011;55756;45.582;11.484;2023-11-19T03:10:11;22.83;;;14.48;;
68765;SDS011;55756;45.582;11.484;2023-11-19T03:12:39;21.50;;;14.35;;
68765;SDS011;55756;45.582;11.484;2023-11-19T03:15:06;22.77;;;14.38;;
68765;SDS011;55756;45.582;11.484;2023-11-19T03:17:34;22.38;;;14.40;;
68765;SDS011;55756;45.582;11.484;2023-11-19T03:20:00;22.10;;;15.05;;
68765;SDS011;55756;45.582;11.484;2023-11-19T03:22:26;22.50;;;14.90;;
68765;SDS011;55756;45.582;11.484;2023-11-19T03:24:52;23.77;;;15.68;;
68765;SDS011;55756;45.582;11.484;2023-11-19T03:27:17;25.08;;;14.80;;
68765;SDS011;55756;45.582;11.484;2023-11-19T03:29:43;25.38;;;15.05;;
68765;SDS011;55756;45.582;11.484;2023-11-19T03:32:09;21.67;;;15.13;;
68765;SDS011;55756;45.582;11.484;2023-11-19T03:34:34;21.83;;;14.38;;
68765;SDS011;55756;45.582;11.484;2023-11-19T03:37:00;24.48;;;15.57;;
68765;SDS011;55756;45.582;11.484;2023-11-19T03:39:26;24.48;;;15.43;;
68765;SDS011;55756;45.582;11.484;2023-11-19T03:41:53;21.48;;;14.90;;
68765;SDS011;55756;45.582;11.484;2023-11-19T03:44:19;22.17;;;14.48;;
68765;SDS011;55756;45.582;11.484;2023-11-19T03:46:45;22.95;;;14.45;;
68765;SDS011;55756;45.582;11.484;2023-11-19T03:49:11;21.85;;;14.27;;
68765;SDS011;55756;45.582;11.484;2023-11-19T03:51:37;20.55;;;13.57;;
68765;SDS011;55756;45.582;11.484;2023-11-19T03:54:03;21.25;;;13.80;;
68765;SDS011;55756;45.582;11.484;2023-11-19T03:56:28;21.60;;;13.55;;
68765;SDS011;55756;45.582;11.484;2023-11-19T03:58:56;19.95;;;13.35;;
68765;SDS011;55756;45.582;11.484;2023-11-19T04:01:22;19.90;;;13.85;;
68765;SDS011;55756;45.582;11.484;2023-11-19T04:03:47;21.08;;;14.05;;
68765;SDS011;55756;45.582;11.484;2023-11-19T04:06:13;19.75;;;13.50;;
68765;SDS011;55756;45.582;11.484;2023-11-19T04:08:39;19.90;;;13.05;;
68765;SDS011;55756;45.582;11.484;2023-11-19T04:11:05;19.50;;;13.02;;
68765;SDS011;55756;45.582;11.484;2023-11-19T04:13:31;21.77;;;13.60;;
68765;SDS011;55756;45.582;11.484;2023-11-19T04:15:56;22.42;;;13.05;;
68765;SDS011;55756;45.582;11.484;2023-11-19T04:18:22;22.70;;;13.48;;
68765;SDS011;55756;45.582;11.484;2023-11-19T04:20:48;21.50;;;13.52;;
68765;SDS011;55756;45.582;11.484;2023-11-19T04:23:16;21.10;;;12.50;;
68765;SDS011;55756;45.582;11.484;2023-11-19T04:25:41;21.98;;;13.18;;
68765;SDS011;55756;45.582;11.484;2023-11-19T04:28:07;18.33;;;12.35;;
68765;SDS011;55756;45.582;11.484;2023-11-19T04:30:33;20.40;;;12.65;;
68765;SDS011;55756;45.582;11.484;2023-11-19T04:33:00;20.98;;;13.40;;
68765;SDS011;55756;45.582;11.484;2023-11-19T04:35:26;21.92;;;13.02;;
68765;SDS011;55756;45.582;11.484;2023-11-19T04:37:52;20.63;;;12.20;;
68765;SDS011;55756;45.582;11.484;2023-11-19T04:40:17;21.08;;;12.55;;
68765;SDS011;55756;45.582;11.484;2023-11-19T04:42:43;18.77;;;11.50;;
68765;SDS011;55756;45.582;11.484;2023-11-19T04:45:09;18.83;;;11.65;;
68765;SDS011;55756;45.582;11.484;2023-11-19T04:47:35;18.88;;;12.07;;
68765;SDS011;55756;45.582;11.484;2023-11-19T04:50:02;21.23;;;12.18;;
68765;SDS011;55756;45.582;11.484;2023-11-19T04:52:28;19.65;;;12.00;;
68765;SDS011;55756;45.582;11.484;2023-11-19T04:54:54;19.60;;;12.05;;
68765;SDS011;55756;45.582;11.484;2023-11-19T04:57:20;19.58;;;11.77;;
68765;SDS011;55756;45.582;11.484;2023-11-19T04:59:45;20.05;;;11.35;;
68765;SDS011;55756;45.582;11.484;2023-11-19T05:02:11;19.05;;;11.68;;
68765;SDS011;55756;45.582;11.484;2023-11-19T05:04:42;18.63;;;11.45;;
68765;SDS011;55756;45.582;11.484;2023-11-19T05:07:09;21.08;;;11.88;;
68765;SDS011;55756;45.582;11.484;2023-11-19T05:09:35;17.85;;;10.85;;
68765;SDS011;55756;45.582;11.484;2023-11-19T05:12:00;21.25;;;13.00;;
68765;SDS011;55756;45.582;11.484;2023-11-19T05:14:27;21.20;;;11.82;;
68765;SDS011;55756;45.582;11.484;2023-11-19T05:16:53;19.27;;;11.88;;
68765;SDS011;55756;45.582;11.484;2023-11-19T05:19:18;19.52;;;11.38;;
68765;SDS011;55756;45.582;11.484;2023-11-19T05:21:44;19.45;;;11.45;;
68765;SDS011;55756;45.582;11.484;2023-11-19T05:24:10;19.10;;;10.73;;
68765;SDS011;55756;45.582;11.484;2023-11-19T05:26:39;21.08;;;11.25;;
68765;SDS011;55756;45.582;11.484;2023-11-19T05:29:05;19.55;;;10.90;;
68765;SDS011;55756;45.582;11.484;2023-11-19T05:31:31;17.42;;;10.63;;
68765;SDS011;55756;45.582;11.484;2023-11-19T05:33:56;22.15;;;11.63;;
68765;SDS011;55756;45.582;11.484;2023-11-19T05:36:22;18.23;;;11.02;;
68765;SDS011;55756;45.582;11.484;2023-11-19T05:38:48;19.38;;;11.65;;
68765;SDS011;55756;45.582;11.484;2023-11-19T05:41:14;56.40;;;34.55;;
68765;SDS011;55756;45.582;11.484;2023-11-19T05:43:40;38.97;;;22.50;;
68765;SDS011;55756;45.582;11.484;2023-11-19T05:46:06;22.83;;;13.77;;
68765;SDS011;55756;45.582;11.484;2023-11-19T05:48:32;20.75;;;12.43;;
68765;SDS011;55756;45.582;11.484;2023-11-19T05:50:58;21.05;;;11.82;;
68765;SDS011;55756;45.582;11.484;2023-11-19T05:53:24;23.27;;;12.25;;
68765;SDS011;55756;45.582;11.484;2023-11-19T05:55:50;20.27;;;12.73;;
68765;SDS011;55756;45.582;11.484;2023-11-19T05:58:27;22.33;;;13.48;;
68765;SDS011;55756;45.582;11.484;2023-11-19T06:00:54;22.35;;;13.82;;
68765;SDS011;55756;45.582;11.484;2023-11-19T06:03:20;22.33;;;13.10;;
68765;SDS011;55756;45.582;11.484;2023-11-19T06:05:46;22.75;;;13.50;;
68765;SDS011;55756;45.582;11.484;2023-11-19T06:08:13;25.08;;;15.35;;
68765;SDS011;55756;45.582;11.484;2023-11-19T06:10:42;30.02;;;17.10;;
68765;SDS011;55756;45.582;11.484;2023-11-19T06:13:11;33.75;;;18.10;;
68765;SDS011;55756;45.582;11.484;2023-11-19T06:15:43;31.38;;;18.38;;
68765;SDS011;55756;45.582;11.484;2023-11-19T06:20:37;35.08;;;18.70;;
68765;SDS011;55756;45.582;11.484;2023-11-19T06:23:02;34.22;;;18.90;;
68765;SDS011;55756;45.582;11.484;2023-11-19T06:25:29;31.15;;;18.10;;
68765;SDS011;55756;45.582;11.484;2023-11-19T06:27:55;30.55;;;17.88;;
68765;SDS011;55756;45.582;11.484;2023-11-19T06:30:21;29.85;;;17.17;;
68765;SDS011;55756;45.582;11.484;2023-11-19T06:32:47;31.27;;;16.33;;
68765;SDS011;55756;45.582;11.484;2023-11-19T06:35:13;27.38;;;16.35;;
68765;SDS011;55756;45.582;11.484;2023-11-19T06:37:39;29.15;;;16.70;;
68765;SDS011;55756;45.582;11.484;2023-11-19T06:40:06;31.75;;;17.20;;
68765;SDS011;55756;45.582;11.484;2023-11-19T06:42:34;29.20;;;17.23;;
68765;SDS011;55756;45.582;11.484;2023-11-19T06:45:00;33.70;;;17.88;;
68765;SDS011;55756;45.582;11.484;2023-11-19T06:47:27;35.08;;;18.33;;
68765;SDS011;55756;45.582;11.484;2023-11-19T06:49:53;33.15;;;18.30;;
68765;SDS011;55756;45.582;11.484;2023-11-19T06:52:20;32.90;;;18.63;;
68765;SDS011;55756;45.582;11.484;2023-11-19T06:54:46;32.45;;;17.70;;
68765;SDS011;55756;45.582;11.484;2023-11-19T06:57:12;34.05;;;18.42;;
68765;SDS011;55756;45.582;11.484;2023-11-19T06:59:38;34.28;;;19.05;;
68765;SDS011;55756;45.582;11.484;2023-11-19T07:02:04;31.88;;;18.73;;
68765;SDS011;55756;45.582;11.484;2023-11-19T07:04:31;33.83;;;18.73;;
68765;SDS011;55756;45.582;11.484;2023-11-19T07:06:58;31.58;;;18.00;;
68765;SDS011;55756;45.582;11.484;2023-11-19T07:09:26;25.00;;;15.82;;
68765;SDS011;55756;45.582;11.484;2023-11-19T07:11:52;26.60;;;14.73;;
68765;SDS011;55756;45.582;11.484;2023-11-19T07:14:18;24.50;;;14.27;;
68765;SDS011;55756;45.582;11.484;2023-11-19T07:16:43;23.92;;;13.25;;
68765;SDS011;55756;45.582;11.484;2023-11-19T07:19:11;21.27;;;12.63;;
68765;SDS011;55756;45.582;11.484;2023-11-19T07:21:37;18.80;;;11.95;;
68765;SDS011;55756;45.582;11.484;2023-11-19T07:24:12;19.58;;;11.63;;
68765;SDS011;55756;45.582;11.484;2023-11-19T07:26:47;20.38;;;11.90;;
68765;SDS011;55756;45.582;11.484;2023-11-19T07:31:38;26.35;;;15.05;;
68765;SDS011;55756;45.582;11.484;2023-11-19T07:34:04;19.67;;;12.23;;
68765;SDS011;55756;45.582;11.484;2023-11-19T07:36:31;20.15;;;12.30;;
68765;SDS011;55756;45.582;11.484;2023-11-19T07:38:58;19.92;;;12.35;;
68765;SDS011;55756;45.582;11.484;2023-11-19T07:41:24;19.95;;;12.82;;
68765;SDS011;55756;45.582;11.484;2023-11-19T07:43:50;21.52;;;13.23;;
68765;SDS011;55756;45.582;11.484;2023-11-19T07:46:17;24.13;;;14.82;;
68765;SDS011;55756;45.582;11.484;2023-11-19T07:51:12;24.98;;;14.40;;
68765;SDS011;55756;45.582;11.484;2023-11-19T07:53:40;25.75;;;14.60;;
68765;SDS011;55756;45.582;11.484;2023-11-19T07:56:06;23.83;;;14.30;;
68765;SDS011;55756;45.582;11.484;2023-11-19T07:58:33;24.10;;;14.43;;
68765;SDS011;55756;45.582;11.484;2023-11-19T08:00:58;25.23;;;13.48;;
68765;SDS011;55756;45.582;11.484;2023-11-19T08:03:24;22.58;;;12.98;;
68765;SDS011;55756;45.582;11.484;2023-11-19T08:05:50;22.33;;;13.60;;
68765;SDS011;55756;45.582;11.484;2023-11-19T08:08:16;22.67;;;13.93;;
68765;SDS011;55756;45.582;11.484;2023-11-19T08:10:42;24.98;;;14.30;;
68765;SDS011;55756;45.582;11.484;2023-11-19T08:13:12;24.85;;;14.63;;
68765;SDS011;55756;45.582;11.484;2023-11-19T08:15:38;21.60;;;14.15;;
68765;SDS011;55756;45.582;11.484;2023-11-19T08:18:05;23.02;;;14.60;;
68765;SDS011;55756;45.582;11.484;2023-11-19T08:20:32;24.00;;;15.02;;
68765;SDS011;55756;45.582;11.484;2023-11-19T08:22:58;21.90;;;14.25;;
68765;SDS011;55756;45.582;11.484;2023-11-19T08:25:24;20.80;;;13.82;;
68765;SDS011;55756;45.582;11.484;2023-11-19T08:27:50;23.13;;;15.07;;
68765;SDS011;55756;45.582;11.484;2023-11-19T08:30:15;25.38;;;15.63;;
68765;SDS011;55756;45.582;11.484;2023-11-19T08:32:43;23.75;;;14.27;;
68765;SDS011;55756;45.582;11.484;2023-11-19T08:35:08;24.58;;;15.75;;
68765;SDS011;55756;45.582;11.484;2023-11-19T08:37:34;21.95;;;14.63;;
68765;SDS011;55756;45.582;11.484;2023-11-19T08:40:02;23.30;;;14.70;;
68765;SDS011;55756;45.582;11.484;2023-11-19T08:42:29;21.73;;;13.82;;
68765;SDS011;55756;45.582;11.484;2023-11-19T08:44:55;24.48;;;14.85;;
68765;SDS011;55756;45.582;11.484;2023-11-19T08:47:21;23.17;;;14.00;;
68765;SDS011;55756;45.582;11.484;2023-11-19T08:49:48;21.92;;;14.73;;
68765;SDS011;55756;45.582;11.484;2023-11-19T08:52:20;23.27;;;15.10;;
68765;SDS011;55756;45.582;11.484;2023-11-19T08:54:46;21.50;;;13.20;;
68765;SDS011;55756;45.582;11.484;2023-11-19T08:57:11;22.77;;;13.77;;
68765;SDS011;55756;45.582;11.484;2023-11-19T08:59:37;22.10;;;13.52;;
68765;SDS011;55756;45.582;11.484;2023-11-19T09:02:06;23.60;;;13.95;;
68765;SDS011;55756;45.582;11.484;2023-11-19T09:04:33;22.30;;;13.98;;
68765;SDS011;55756;45.582;11.484;2023-11-19T09:06:59;21.30;;;13.77;;
68765;SDS011;55756;45.582;11.484;2023-11-19T09:09:24;22.67;;;13.55;;
68765;SDS011;55756;45.582;11.484;2023-11-19T09:11:50;25.67;;;14.32;;
68765;SDS011;55756;45.582;11.484;2023-11-19T09:14:16;27.58;;;15.57;;
68765;SDS011;55756;45.582;11.484;2023-11-19T09:16:43;25.23;;;14.07;;
68765;SDS011;55756;45.582;11.484;2023-11-19T09:19:09;23.48;;;14.55;;
68765;SDS011;55756;45.582;11.484;2023-11-19T09:21:35;24.27;;;15.00;;
68765;SDS011;55756;45.582;11.484;2023-11-19T09:24:04;28.05;;;16.08;;
68765;SDS011;55756;45.582;11.484;2023-11-19T09:26:30;24.50;;;15.45;;
68765;SDS011;55756;45.582;11.484;2023-11-19T09:28:56;26.88;;;15.63;;
68765;SDS011;55756;45.582;11.484;2023-11-19T09:31:21;25.25;;;15.02;;
68765;SDS011;55756;45.582;11.484;2023-11-19T09:33:47;23.58;;;15.23;;
68765;SDS011;55756;45.582;11.484;2023-11-19T09:36:13;26.60;;;15.75;;
68765;SDS011;55756;45.582;11.484;2023-11-19T09:38:39;24.33;;;14.98;;
68765;SDS011;55756;45.582;11.484;2023-11-19T09:41:11;26.10;;;16.23;;
68765;SDS011;55756;45.582;11.484;2023-11-19T09:43:41;26.55;;;16.15;;
68765;SDS011;55756;45.582;11.484;2023-11-19T09:46:09;25.10;;;15.40;;
68765;SDS011;55756;45.582;11.484;2023-11-19T09:48:39;24.80;;;15.88;;
68765;SDS011;55756;45.582;11.484;2023-11-19T09:51:08;24.83;;;15.20;;
68765;SDS011;55756;45.582;11.484;2023-11-19T09:53:36;22.33;;;13.80;;
68765;SDS011;55756;45.582;11.484;2023-11-19T09:56:02;21.27;;;12.60;;
68765;SDS011;55756;45.582;11.484;2023-11-19T09:58:29;19.38;;;11.85;;
68765;SDS011;55756;45.582;11.484;2023-11-19T10:00:56;19.30;;;11.73;;
68765;SDS011;55756;45.582;11.484;2023-11-19T10:03:30;19.08;;;11.18;;
68765;SDS011;55756;45.582;11.484;2023-11-19T10:06:03;18.38;;;10.93;;
68765;SDS011;55756;45.582;11.484;2023-11-19T10:08:29;17.85;;;10.95;;
68765;SDS011;55756;45.582;11.484;2023-11-19T10:10:55;17.90;;;11.40;;
68765;SDS011;55756;45.582;11.484;2023-11-19T10:13:26;19.75;;;11.27;;
68765;SDS011;55756;45.582;11.484;2023-11-19T10:15:53;20.60;;;11.70;;
68765;SDS011;55756;45.582;11.484;2023-11-19T10:18:23;18.77;;;11.45;;
68765;SDS011;55756;45.582;11.484;2023-11-19T10:20:50;17.50;;;11.07;;
68765;SDS011;55756;45.582;11.484;2023-11-19T10:23:16;18.23;;;11.00;;
68765;SDS011;55756;45.582;11.484;2023-11-19T10:25:42;19.38;;;11.15;;
68765;SDS011;55756;45.582;11.484;2023-11-19T10:28:08;16.30;;;10.65;;
68765;SDS011;55756;45.582;11.484;2023-11-19T10:30:33;17.65;;;10.35;;
68765;SDS011;55756;45.582;11.484;2023-11-19T10:35:32;18.33;;;11.32;;
68765;SDS011;55756;45.582;11.484;2023-11-19T10:37:59;24.70;;;14.10;;
68765;SDS011;55756;45.582;11.484;2023-11-19T10:40:39;19.00;;;11.85;;
68765;SDS011;55756;45.582;11.484;2023-11-19T10:43:08;18.08;;;11.05;;
68765;SDS011;55756;45.582;11.484;2023-11-19T10:45:34;16.58;;;10.25;;
68765;SDS011;55756;45.582;11.484;2023-11-19T10:48:02;18.70;;;10.60;;
68765;SDS011;55756;45.582;11.484;2023-11-19T10:50:38;20.63;;;12.48;;
68765;SDS011;55756;45.582;11.484;2023-11-19T10:53:06;17.58;;;10.70;;
68765;SDS011;55756;45.582;11.484;2023-11-19T10:55:37;17.40;;;10.57;;
68765;SDS011;55756;45.582;11.484;2023-11-19T10:58:07;18.27;;;10.20;;
68765;SDS011;55756;45.582;11.484;2023-11-19T11:03:16;16.92;;;10.02;;
68765;SDS011;55756;45.582;11.484;2023-11-19T11:05:50;17.17;;;9.85;;
68765;SDS011;55756;45.582;11.484;2023-11-19T11:08:17;16.95;;;10.68;;
68765;SDS011;55756;45.582;11.484;2023-11-19T11:10:54;17.48;;;11.43;;
68765;SDS011;55756;45.582;11.484;2023-11-19T11:13:24;17.40;;;10.82;;
68765;SDS011;55756;45.582;11.484;2023-11-19T11:15:52;18.38;;;11.63;;
68765;SDS011;55756;45.582;11.484;2023-11-19T11:18:21;18.70;;;11.45;;
68765;SDS011;55756;45.582;11.484;2023-11-19T11:20:48;21.60;;;12.65;;
68765;SDS011;55756;45.582;11.484;2023-11-19T11:26:00;18.10;;;12.20;;
68765;SDS011;55756;45.582;11.484;2023-11-19T11:28:57;19.90;;;13.07;;
68765;SDS011;55756;45.582;11.484;2023-11-19T11:31:37;19.95;;;13.05;;
68765;SDS011;55756;45.582;11.484;2023-11-19T11:50:20;21.90;;;14.50;;
68765;SDS011;55756;45.582;11.484;2023-11-19T11:55:35;27.02;;;17.23;;
68765;SDS011;55756;45.582;11.484;2023-11-19T11:58:02;27.25;;;16.63;;
68765;SDS011;55756;45.582;11.484;2023-11-19T12:00:31;25.33;;;16.20;;
68765;SDS011;55756;45.582;11.484;2023-11-19T12:03:04;24.85;;;15.45;;
68765;SDS011;55756;45.582;11.484;2023-11-19T12:05:32;24.63;;;15.73;;
68765;SDS011;55756;45.582;11.484;2023-11-19T12:08:00;23.90;;;16.13;;
68765;SDS011;55756;45.582;11.484;2023-11-19T12:10:31;28.17;;;16.77;;
68765;SDS011;55756;45.582;11.484;2023-11-19T12:13:02;25.73;;;16.00;;
68765;SDS011;55756;45.582;11.484;2023-11-19T12:15:32;28.58;;;18.48;;
68765;SDS011;55756;45.582;11.484;2023-11-19T12:17:58;26.42;;;16.77;;
68765;SDS011;55756;45.582;11.484;2023-11-19T12:20:25;26.48;;;15.65;;
68765;SDS011;55756;45.582;11.484;2023-11-19T12:22:53;23.88;;;15.45;;
68765;SDS011;55756;45.582;11.484;2023-11-19T12:25:19;25.02;;;16.13;;
68765;SDS011;55756;45.582;11.484;2023-11-19T12:27:54;27.65;;;16.95;;
68765;SDS011;55756;45.582;11.484;2023-11-19T12:30:23;24.15;;;15.57;;
68765;SDS011;55756;45.582;11.484;2023-11-19T12:32:50;29.13;;;18.40;;
68765;SDS011;55756;45.582;11.484;2023-11-19T12:35:18;27.45;;;18.30;;
68765;SDS011;55756;45.582;11.484;2023-11-19T12:37:51;25.90;;;16.38;;
68765;SDS011;55756;45.582;11.484;2023-11-19T12:40:24;23.88;;;16.05;;
68765;SDS011;55756;45.582;11.484;2023-11-19T12:42:52;24.13;;;15.93;;
68765;SDS011;55756;45.582;11.484;2023-11-19T12:45:18;25.13;;;16.02;;
68765;SDS011;55756;45.582;11.484;2023-11-19T12:47:46;22.23;;;15.30;;
68765;SDS011;55756;45.582;11.484;2023-11-19T12:50:13;23.20;;;15.15;;
68765;SDS011;55756;45.582;11.484;2023-11-19T12:52:40;22.52;;;14.32;;
68765;SDS011;55756;45.582;11.484;2023-11-19T12:55:25;26.85;;;15.13;;
68765;SDS011;55756;45.582;11.484;2023-11-19T13:00:21;23.80;;;14.90;;
68765;SDS011;55756;45.582;11.484;2023-11-19T13:02:49;23.80;;;14.60;;
68765;SDS011;55756;45.582;11.484;2023-11-19T13:05:28;22.40;;;15.10;;
68765;SDS011;55756;45.582;11.484;2023-11-19T13:10:31;22.20;;;15.05;;
68765;SDS011;55756;45.582;11.484;2023-11-19T13:15:34;22.52;;;14.63;;
68765;SDS011;55756;45.582;11.484;2023-11-19T13:18:00;24.80;;;15.40;;
68765;SDS011;55756;45.582;11.484;2023-11-19T13:20:27;22.27;;;15.30;;
68765;SDS011;55756;45.582;11.484;2023-11-19T13:23:03;23.70;;;15.25;;
68765;SDS011;55756;45.582;11.484;2023-11-19T13:25:30;24.85;;;15.20;;
68765;SDS011;55756;45.582;11.484;2023-11-19T13:27:57;22.35;;;14.30;;
68765;SDS011;55756;45.582;11.484;2023-11-19T13:30:23;22.42;;;14.48;;
68765;SDS011;55756;45.582;11.484;2023-11-19T13:32:50;22.00;;;14.38;;
68765;SDS011;55756;45.582;11.484;2023-11-19T13:35:17;23.52;;;15.52;;
68765;SDS011;55756;45.582;11.484;2023-11-19T13:37:43;27.15;;;15.32;;
68765;SDS011;55756;45.582;11.484;2023-11-19T13:40:10;22.95;;;14.93;;
68765;SDS011;55756;45.582;11.484;2023-11-19T13:45:07;24.63;;;15.10;;
68765;SDS011;55756;45.582;11.484;2023-11-19T13:47:37;22.92;;;15.75;;
68765;SDS011;55756;45.582;11.484;2023-11-19T13:50:08;21.95;;;15.00;;
68765;SDS011;55756;45.582;11.484;2023-11-19T13:52:35;27.30;;;15.52;;
68765;SDS011;55756;45.582;11.484;2023-11-19T13:55:03;25.10;;;15.85;;
68765;SDS011;55756;45.582;11.484;2023-11-19T13:57:31;22.95;;;15.38;;
68765;SDS011;55756;45.582;11.484;2023-11-19T13:59:57;23.25;;;15.77;;
68765;SDS011;55756;45.582;11.484;2023-11-19T14:02:23;23.08;;;16.15;;
68765;SDS011;55756;45.582;11.484;2023-11-19T14:04:48;24.30;;;15.80;;
68765;SDS011;55756;45.582;11.484;2023-11-19T14:07:14;25.02;;;15.80;;
68765;SDS011;55756;45.582;11.484;2023-11-19T14:09:41;24.00;;;15.70;;
68765;SDS011;55756;45.582;11.484;2023-11-19T14:12:07;27.67;;;16.17;;
68765;SDS011;55756;45.582;11.484;2023-11-19T14:14:34;26.65;;;16.77;;
68765;SDS011;55756;45.582;11.484;2023-11-19T14:17:03;28.83;;;16.42;;
68765;SDS011;55756;45.582;11.484;2023-11-19T14:21:54;25.08;;;16.05;;
68765;SDS011;55756;45.582;11.484;2023-11-19T14:24:20;26.95;;;17.17;;
68765;SDS011;55756;45.582;11.484;2023-11-19T14:26:47;26.63;;;17.75;;
68765;SDS011;55756;45.582;11.484;2023-11-19T14:29:14;27.98;;;18.10;;
68765;SDS011;55756;45.582;11.484;2023-11-19T14:31:40;27.20;;;16.63;;
68765;SDS011;55756;45.582;11.484;2023-11-19T14:34:06;24.25;;;15.75;;
68765;SDS011;55756;45.582;11.484;2023-11-19T14:36:32;27.38;;;16.40;;
68765;SDS011;55756;45.582;11.484;2023-11-19T14:38:58;26.67;;;16.08;;
68765;SDS011;55756;45.582;11.484;2023-11-19T14:41:26;25.08;;;15.88;;
68765;SDS011;55756;45.582;11.484;2023-11-19T14:43:52;24.58;;;16.30;;
68765;SDS011;55756;45.582;11.484;2023-11-19T14:46:18;26.85;;;16.13;;
68765;SDS011;55756;45.582;11.484;2023-11-19T14:48:43;26.20;;;17.02;;
68765;SDS011;55756;45.582;11.484;2023-11-19T14:51:09;28.42;;;17.35;;
68765;SDS011;55756;45.582;11.484;2023-11-19T14:53:35;25.20;;;16.52;;
68765;SDS011;55756;45.582;11.484;2023-11-19T14:56:01;25.52;;;16.77;;
68765;SDS011;55756;45.582;11.484;2023-11-19T14:58:27;26.00;;;16.77;;
68765;SDS011;55756;45.582;11.484;2023-11-19T15:00:53;24.38;;;16.20;;